Wetterdaten: Samstag, 09.11.2013
Datum Zeit Temperatur Luftfeuchte Luftdruck Regen Wind Richtung Richtung Taupunkt Windchill Windben
09.11.2013 00:00 9,7 C 81 % 1012,2 hPa 0,0 l/m 5,8 km/h (2 Bft) S-SO 157 6,6 C 9,8 C 8,5 km/h (2 Bft)
09.11.2013 00:05 9,7 C 80 % 1012,2 hPa 0,0 l/m 5,5 km/h (1 Bft) SO 135 6,4 C 10,1 C 7,4 km/h (2 Bft)
09.11.2013 00:10 9,6 C 80 % 1012,5 hPa 0,0 l/m 5,8 km/h (2 Bft) S-SW 202 6,3 C 10,1 C 7,4 km/h (2 Bft)
09.11.2013 00:15 10,0 C 79 % 1012,5 hPa 0,0 l/m 6,4 km/h (2 Bft) O-SO 112 6,5 C 10,2 C 10,1 km/h (2 Bft)
09.11.2013 00:20 10,4 C 78 % 1012,5 hPa 0,0 l/m 6,6 km/h (2 Bft) S 180 6,7 C 10,3 C 10,3 km/h (2 Bft)
09.11.2013 00:25 10,5 C 78 % 1012,5 hPa 0,0 l/m 6,4 km/h (2 Bft) O-SO 112 6,8 C 10,6 C 7,6 km/h (2 Bft)
09.11.2013 00:30 10,8 C 77 % 1012,8 hPa 0,0 l/m 6,1 km/h (2 Bft) O-SO 112 6,9 C 10,8 C 10,9 km/h (2 Bft)
09.11.2013 00:35 11,0 C 77 % 1012,8 hPa 0,0 l/m 7,4 km/h (2 Bft) S-SO 157 7,1 C 10,2 C 10,8 km/h (2 Bft)
09.11.2013 00:40 10,9 C 78 % 1012,8 hPa 0,0 l/m 8,7 km/h (2 Bft) S 180 7,2 C 9,2 C 19,2 km/h (3 Bft)
09.11.2013 00:45 10,8 C 78 % 1012,8 hPa 0,0 l/m 8,2 km/h (2 Bft) O-SO 112 7,1 C 9,5 C 18,8 km/h (3 Bft)
09.11.2013 00:50 10,8 C 79 % 1012,9 hPa 0,0 l/m 9,7 km/h (2 Bft) S 180 7,3 C 8,3 C 19,6 km/h (3 Bft)
09.11.2013 00:55 10,8 C 80 % 1012,9 hPa 0,0 l/m 9,8 km/h (2 Bft) O-SO 112 7,5 C 7,8 C 9,0 km/h (2 Bft)
09.11.2013 01:00 10,6 C 83 % 1012,9 hPa 0,0 l/m 10,0 km/h (2 Bft) SW 225 7,8 C 7,0 C 41,7 km/h (6 Bft)
09.11.2013 01:05 10,1 C 85 % 1012,9 hPa 0,0 l/m 13,7 km/h (3 Bft) S-SO 157 7,7 C 4,2 C 21,4 km/h (4 Bft)
09.11.2013 01:10 8,8 C 86 % 1013,8 hPa 0,0 l/m 21,6 km/h (4 Bft) S-SO 157 6,6 C -1,7 C 19,8 km/h (3 Bft)
09.11.2013 01:15 8,4 C 87 % 1013,8 hPa 0,0 l/m 21,4 km/h (4 Bft) S-SO 157 6,4 C -2,7 C 23,0 km/h (4 Bft)
09.11.2013 01:20 8,1 C 88 % 1013,8 hPa 0,0 l/m 16,3 km/h (3 Bft) S 180 6,2 C -0,6 C 9,2 km/h (2 Bft)
09.11.2013 01:25 7,9 C 89 % 1013,8 hPa 0,0 l/m 13,8 km/h (3 Bft) S-SO 157 6,2 C 0,5 C 18,7 km/h (3 Bft)
09.11.2013 01:30 7,5 C 89 % 1014,0 hPa 0,7 l/m 13,5 km/h (3 Bft) S 180 5,8 C 0,2 C 20,0 km/h (4 Bft)
09.11.2013 01:35 7,3 C 89 % 1014,0 hPa 0,0 l/m 14,0 km/h (3 Bft) S 180 5,6 C -0,3 C 19,3 km/h (3 Bft)
09.11.2013 01:40 7,1 C 89 % 1014,0 hPa 0,0 l/m 15,1 km/h (3 Bft) S 180 5,4 C -1,5 C 15,9 km/h (3 Bft)
09.11.2013 01:45 7,0 C 90 % 1014,0 hPa 0,0 l/m 13,5 km/h (3 Bft) S-SO 157 5,5 C -0,6 C 25,3 km/h (4 Bft)
09.11.2013 01:50 6,9 C 90 % 1014,1 hPa 0,0 l/m 11,4 km/h (2 Bft) S 180 5,4 C 1,0 C 12,2 km/h (2 Bft)
09.11.2013 01:55 6,9 C 90 % 1014,1 hPa 0,0 l/m 11,1 km/h (2 Bft) S 180 5,4 C 1,1 C 11,7 km/h (2 Bft)
09.11.2013 02:00 6,8 C 90 % 1014,1 hPa 0,7 l/m 10,1 km/h (2 Bft) SO 135 5,3 C 1,9 C 5,3 km/h (1 Bft)
09.11.2013 02:03 6,7 C 90 % 1014,1 hPa 0,0 l/m 10,3 km/h (2 Bft) S 180 5,2 C 1,6 C 20,0 km/h (4 Bft)
09.11.2013 02:05 6,7 C 90 % 1014,1 hPa 0,0 l/m 10,3 km/h (2 Bft) S 180 5,2 C 1,6 C 20,0 km/h (4 Bft)
09.11.2013 02:10 6,7 C 91 % 1014,7 hPa 0,0 l/m 10,1 km/h (2 Bft) S-SO 157 5,3 C 1,9 C 11,4 km/h (2 Bft)
09.11.2013 02:15 6,6 C 91 % 1014,7 hPa 0,0 l/m 11,6 km/h (2 Bft) S-SO 157 5,2 C 0,4 C 18,7 km/h (3 Bft)
09.11.2013 02:20 6,5 C 91 % 1014,7 hPa 0,0 l/m 10,0 km/h (2 Bft) S-SW 202 5,1 C 1,7 C 11,3 km/h (2 Bft)
09.11.2013 02:25 6,5 C 91 % 1014,7 hPa 0,0 l/m 10,3 km/h (2 Bft) S 180 5,1 C 1,5 C 10,8 km/h (2 Bft)
09.11.2013 02:30 6,4 C 91 % 1014,9 hPa 0,0 l/m 10,0 km/h (2 Bft) S-SO 157 5,0 C 1,6 C 12,2 km/h (2 Bft)
09.11.2013 02:35 6,4 C 92 % 1014,9 hPa 0,0 l/m 10,1 km/h (2 Bft) S 180 5,2 C 1,6 C 11,1 km/h (2 Bft)
09.11.2013 02:40 6,3 C 92 % 1014,9 hPa 0,0 l/m 10,6 km/h (2 Bft) S 180 5,1 C 0,9 C 11,4 km/h (2 Bft)
09.11.2013 02:45 6,3 C 92 % 1014,9 hPa 0,7 l/m 10,6 km/h (2 Bft) S 180 5,1 C 0,9 C 14,3 km/h (3 Bft)
09.11.2013 02:50 6,2 C 92 % 1015,0 hPa 0,7 l/m 10,6 km/h (2 Bft) SO 135 5,0 C 0,9 C 19,6 km/h (3 Bft)
09.11.2013 02:55 6,1 C 92 % 1015,0 hPa 0,0 l/m 11,3 km/h (2 Bft) SO 135 4,9 C 0,2 C 14,2 km/h (3 Bft)
09.11.2013 03:00 6,1 C 92 % 1015,0 hPa 0,7 l/m 11,1 km/h (2 Bft) S 180 4,9 C 0,1 C 9,2 km/h (2 Bft)
09.11.2013 03:05 6,0 C 93 % 1015,0 hPa 0,0 l/m 9,7 km/h (2 Bft) S 180 5,0 C 1,5 C 8,5 km/h (2 Bft)
09.11.2013 03:10 5,9 C 94 % 1015,1 hPa 0,0 l/m 9,5 km/h (2 Bft) S-SW 202 5,0 C 1,6 C 6,3 km/h (2 Bft)
09.11.2013 03:15 5,9 C 94 % 1015,1 hPa 0,7 l/m 8,2 km/h (2 Bft) S-SO 157 5,0 C 2,9 C 6,3 km/h (2 Bft)
09.11.2013 03:20 5,8 C 94 % 1015,1 hPa 0,0 l/m 7,7 km/h (2 Bft) S 180 4,9 C 3,3 C 10,1 km/h (2 Bft)
09.11.2013 03:25 5,8 C 94 % 1015,1 hPa 0,0 l/m 7,6 km/h (2 Bft) O-SO 112 4,9 C 3,3 C 8,0 km/h (2 Bft)
09.11.2013 03:30 5,7 C 94 % 1015,1 hPa 0,7 l/m 8,0 km/h (2 Bft) S-SO 157 4,8 C 2,9 C 9,7 km/h (2 Bft)
09.11.2013 03:35 5,7 C 94 % 1015,1 hPa 0,0 l/m 7,1 km/h (2 Bft) SO 135 4,8 C 4,0 C 7,4 km/h (2 Bft)
09.11.2013 03:40 5,6 C 95 % 1015,1 hPa 0,0 l/m 5,5 km/h (1 Bft) O-NO 67 4,9 C 5,1 C 4,2 km/h (1 Bft)
09.11.2013 03:45 5,6 C 95 % 1015,1 hPa 0,0 l/m 5,3 km/h (1 Bft) S 180 4,9 C 4,9 C 6,4 km/h (2 Bft)
09.11.2013 03:50 5,6 C 95 % 1015,3 hPa 0,7 l/m 5,1 km/h (1 Bft) S-SO 157 4,9 C 5,1 C 6,3 km/h (2 Bft)
09.11.2013 03:55 5,6 C 95 % 1015,3 hPa 0,0 l/m 5,0 km/h (1 Bft) S-SO 157 4,9 C 5,1 C 3,4 km/h (1 Bft)
09.11.2013 04:00 5,5 C 95 % 1015,3 hPa 0,0 l/m 4,5 km/h (1 Bft) O-SO 112 4,8 C 5,3 C 5,3 km/h (1 Bft)
09.11.2013 04:05 5,5 C 95 % 1015,3 hPa 0,7 l/m 4,2 km/h (1 Bft) S 180 4,8 C 5,3 C 7,1 km/h (2 Bft)
09.11.2013 04:10 5,5 C 95 % 1015,4 hPa 0,0 l/m 3,5 km/h (1 Bft) S 180 4,8 C 5,6 C 2,4 km/h (1 Bft)
09.11.2013 04:15 5,5 C 95 % 1015,4 hPa 0,0 l/m 2,7 km/h (1 Bft) S 180 4,8 C 5,8 C 3,1 km/h (1 Bft)
09.11.2013 04:20 5,5 C 95 % 1015,4 hPa 0,7 l/m 1,9 km/h (1 Bft) SO 135 4,8 C 5,8 C 0,0 km/h (0 Bft)
09.11.2013 04:25 5,5 C 95 % 1015,4 hPa 0,0 l/m 1,6 km/h (1 Bft) S 180 4,8 C 5,8 C 3,5 km/h (1 Bft)
09.11.2013 04:30 5,5 C 95 % 1016,0 hPa 0,0 l/m 1,6 km/h (1 Bft) O 90 4,8 C 5,8 C 3,7 km/h (1 Bft)
09.11.2013 04:35 5,5 C 95 % 1016,0 hPa 0,0 l/m 3,2 km/h (1 Bft) S 180 4,8 C 5,8 C 3,4 km/h (1 Bft)
09.11.2013 04:40 5,5 C 95 % 1016,0 hPa 0,0 l/m 4,2 km/h (1 Bft) O-SO 112 4,8 C 5,2 C 2,9 km/h (1 Bft)
09.11.2013 04:45 5,4 C 95 % 1016,0 hPa 0,7 l/m 3,1 km/h (1 Bft) S 180 4,7 C 5,7 C 2,1 km/h (1 Bft)
09.11.2013 04:50 5,4 C 95 % 1015,9 hPa 0,0 l/m 2,7 km/h (1 Bft) S 180 4,7 C 5,7 C 6,1 km/h (2 Bft)
09.11.2013 04:55 5,4 C 95 % 1015,9 hPa 0,0 l/m 2,7 km/h (1 Bft) S-SO 157 4,7 C 5,7 C 4,7 km/h (1 Bft)
09.11.2013 05:00 5,4 C 95 % 1015,9 hPa 0,7 l/m 2,6 km/h (1 Bft) S 180 4,7 C 5,6 C 3,1 km/h (1 Bft)
09.11.2013 05:05 5,4 C 96 % 1015,9 hPa 0,0 l/m 2,1 km/h (1 Bft) N-NW 337 4,8 C 5,6 C 0,0 km/h (0 Bft)
09.11.2013 05:10 5,4 C 96 % 1015,8 hPa 0,0 l/m 2,7 km/h (1 Bft) S 180 4,8 C 5,6 C 2,1 km/h (1 Bft)
09.11.2013 05:15 5,3 C 96 % 1015,8 hPa 0,0 l/m 2,1 km/h (1 Bft) O 90 4,7 C 5,6 C 3,1 km/h (1 Bft)
09.11.2013 05:20 5,4 C 96 % 1015,8 hPa 0,0 l/m 1,6 km/h (1 Bft) SO 135 4,8 C 5,6 C 2,1 km/h (1 Bft)
09.11.2013 05:25 5,4 C 96 % 1015,8 hPa 0,0 l/m 2,3 km/h (1 Bft) O-SO 112 4,8 C 5,6 C 3,2 km/h (1 Bft)
09.11.2013 05:30 5,3 C 96 % 1015,9 hPa 0,0 l/m 2,7 km/h (1 Bft) S 180 4,7 C 5,6 C 5,6 km/h (1 Bft)
09.11.2013 05:35 5,3 C 96 % 1015,9 hPa 0,0 l/m 3,7 km/h (1 Bft) SO 135 4,7 C 5,3 C 5,3 km/h (1 Bft)
09.11.2013 05:40 5,3 C 96 % 1015,9 hPa 0,0 l/m 4,8 km/h (1 Bft) S 180 4,7 C 4,7 C 4,5 km/h (1 Bft)
09.11.2013 05:45 5,2 C 96 % 1015,9 hPa 0,0 l/m 4,7 km/h (1 Bft) S-SO 157 4,6 C 4,8 C 3,1 km/h (1 Bft)
09.11.2013 05:50 5,2 C 96 % 1016,4 hPa 0,0 l/m 4,5 km/h (1 Bft) S-SO 157 4,6 C 4,7 C 6,6 km/h (2 Bft)
09.11.2013 05:55 5,1 C 96 % 1016,4 hPa 0,0 l/m 4,0 km/h (1 Bft) O-SO 112 4,5 C 4,9 C 4,8 km/h (1 Bft)
09.11.2013 06:00 5,1 C 96 % 1016,4 hPa 0,0 l/m 3,4 km/h (1 Bft) O-SO 112 4,5 C 5,4 C 1,9 km/h (1 Bft)
09.11.2013 06:05 5,1 C 96 % 1016,4 hPa 0,0 l/m 2,3 km/h (1 Bft) O 90 4,5 C 5,4 C 0,0 km/h (0 Bft)
09.11.2013 06:10 5,1 C 96 % 1016,2 hPa 0,0 l/m 1,6 km/h (1 Bft) S-SO 157 4,5 C 5,4 C 2,6 km/h (1 Bft)
09.11.2013 06:15 5,1 C 96 % 1016,2 hPa 0,0 l/m 2,4 km/h (1 Bft) SO 135 4,5 C 5,4 C 3,9 km/h (1 Bft)
09.11.2013 06:20 5,1 C 96 % 1016,2 hPa 0,7 l/m 2,7 km/h (1 Bft) SO 135 4,5 C 5,4 C 6,1 km/h (2 Bft)
09.11.2013 06:25 5,1 C 96 % 1016,2 hPa 0,0 l/m 2,4 km/h (1 Bft) O 90 4,5 C 5,3 C 4,3 km/h (1 Bft)
09.11.2013 06:30 5,1 C 96 % 1016,1 hPa 0,0 l/m 2,6 km/h (1 Bft) SO 135 4,5 C 5,3 C 0,0 km/h (0 Bft)
09.11.2013 06:35 5,1 C 96 % 1016,1 hPa 0,0 l/m 2,3 km/h (1 Bft) O-NO 67 4,5 C 5,3 C 3,1 km/h (1 Bft)
09.11.2013 06:40 5,1 C 96 % 1016,1 hPa 0,0 l/m 0,6 km/h (0 Bft) NO 45 4,5 C 5,3 C 1,9 km/h (1 Bft)
09.11.2013 06:45 5,0 C 96 % 1016,1 hPa 0,0 l/m 0,3 km/h (0 Bft) NO 45 4,4 C 5,3 C 1,9 km/h (1 Bft)
09.11.2013 06:50 5,0 C 96 % 1016,0 hPa 0,0 l/m 1,3 km/h (1 Bft) S 180 4,4 C 5,3 C 3,2 km/h (1 Bft)
09.11.2013 06:55 5,0 C 96 % 1016,0 hPa 0,0 l/m 1,8 km/h (1 Bft) O-SO 112 4,4 C 5,3 C 1,6 km/h (1 Bft)
09.11.2013 06:58 5,0 C 96 % 1016,0 hPa 0,0 l/m 1,1 km/h (1 Bft) O 90 4,4 C 5,3 C 0,0 km/h (0 Bft)
09.11.2013 07:00 5,0 C 96 % 1016,0 hPa 0,0 l/m 1,1 km/h (1 Bft) O 90 4,4 C 5,3 C 0,0 km/h (0 Bft)
09.11.2013 07:05 4,9 C 96 % 1016,0 hPa 0,0 l/m 0,3 km/h (0 Bft) O-SO 112 4,3 C 5,2 C 0,0 km/h (0 Bft)
09.11.2013 07:10 4,9 C 96 % 1016,1 hPa 0,0 l/m 0,0 km/h (0 Bft) SO 135 4,3 C 5,1 C 0,0 km/h (0 Bft)
09.11.2013 07:15 5,0 C 96 % 1016,1 hPa 0,0 l/m 0,0 km/h (0 Bft) O-SO 112 4,4 C 5,1 C 0,0 km/h (0 Bft)
09.11.2013 07:20 4,9 C 96 % 1016,1 hPa 0,0 l/m 0,6 km/h (0 Bft) NO 45 4,3 C 5,1 C 2,7 km/h (1 Bft)
09.11.2013 07:25 5,0 C 96 % 1016,1 hPa 0,0 l/m 1,0 km/h (0 Bft) O 90 4,4 C 5,1 C 2,1 km/h (1 Bft)
09.11.2013 07:30 5,1 C 96 % 1016,4 hPa 0,0 l/m 1,0 km/h (0 Bft) O 90 4,5 C 5,1 C 2,1 km/h (1 Bft)
09.11.2013 07:35 5,1 C 96 % 1016,4 hPa 0,0 l/m 1,0 km/h (0 Bft) O 90 4,5 C 5,1 C 2,1 km/h (1 Bft)
09.11.2013 07:40 5,1 C 96 % 1016,4 hPa 0,0 l/m 0,0 km/h (0 Bft) O 90 4,5 C 5,1 C 0,0 km/h (0 Bft)
09.11.2013 07:45 5,1 C 96 % 1016,4 hPa 0,0 l/m 0,0 km/h (0 Bft) O 90 4,5 C 5,1 C 0,0 km/h (0 Bft)
09.11.2013 07:50 5,1 C 96 % 1016,9 hPa 0,0 l/m 0,0 km/h (0 Bft) O 90 4,5 C 5,1 C 0,0 km/h (0 Bft)
09.11.2013 07:55 5,1 C 96 % 1016,9 hPa 0,0 l/m 0,0 km/h (0 Bft) O 90 4,5 C 5,1 C 0,0 km/h (0 Bft)
09.11.2013 08:00 5,1 C 96 % 1016,9 hPa 0,0 l/m 0,0 km/h (0 Bft) O 90 4,5 C 5,1 C 0,0 km/h (0 Bft)
09.11.2013 08:05 5,2 C 96 % 1016,9 hPa 0,0 l/m 0,0 km/h (0 Bft) O 90 4,6 C 5,1 C 0,0 km/h (0 Bft)
09.11.2013 08:10 5,1 C 96 % 1017,2 hPa 0,7 l/m 0,0 km/h (0 Bft) O 90 4,5 C 5,1 C 0,0 km/h (0 Bft)
09.11.2013 08:15 5,1 C 96 % 1017,2 hPa 0,0 l/m 0,0 km/h (0 Bft) O 90 4,5 C 5,1 C 0,0 km/h (0 Bft)
09.11.2013 08:20 5,1 C 96 % 1017,2 hPa 0,0 l/m 0,0 km/h (0 Bft) O 90 4,5 C 5,1 C 0,0 km/h (0 Bft)
09.11.2013 08:25 5,0 C 96 % 1017,2 hPa 0,0 l/m 0,0 km/h (0 Bft) O 90 4,4 C 5,1 C 0,0 km/h (0 Bft)
09.11.2013 08:30 5,0 C 96 % 1017,2 hPa 0,0 l/m 0,0 km/h (0 Bft) O 90 4,4 C 5,1 C 0,0 km/h (0 Bft)
09.11.2013 08:35 4,9 C 96 % 1017,2 hPa 0,0 l/m 0,0 km/h (0 Bft) O 90 4,3 C 5,1 C 0,0 km/h (0 Bft)
09.11.2013 08:40 4,9 C 96 % 1017,2 hPa 0,0 l/m 0,0 km/h (0 Bft) O 90 4,3 C 5,1 C 0,0 km/h (0 Bft)
09.11.2013 08:45 4,9 C 96 % 1017,2 hPa 0,0 l/m 0,0 km/h (0 Bft) O 90 4,3 C 5,1 C 0,0 km/h (0 Bft)
09.11.2013 08:50 4,9 C 96 % 1017,5 hPa 0,0 l/m 0,0 km/h (0 Bft) O 90 4,3 C 5,1 C 0,0 km/h (0 Bft)
09.11.2013 08:55 4,9 C 96 % 1017,5 hPa 0,0 l/m 0,0 km/h (0 Bft) O 90 4,3 C 5,1 C 0,0 km/h (0 Bft)
09.11.2013 09:00 4,9 C 96 % 1017,5 hPa 0,0 l/m 0,0 km/h (0 Bft) O 90 4,3 C 5,1 C 0,0 km/h (0 Bft)
09.11.2013 09:05 4,9 C 96 % 1017,5 hPa 0,0 l/m 0,0 km/h (0 Bft) O 90 4,3 C 5,1 C 0,0 km/h (0 Bft)
09.11.2013 09:10 4,9 C 96 % 1017,4 hPa 0,0 l/m 0,0 km/h (0 Bft) O 90 4,3 C 5,1 C 0,0 km/h (0 Bft)
09.11.2013 09:15 4,9 C 96 % 1017,4 hPa 0,0 l/m 0,0 km/h (0 Bft) O 90 4,3 C 5,1 C 0,0 km/h (0 Bft)
09.11.2013 09:20 5,0 C 96 % 1017,4 hPa 0,0 l/m 0,0 km/h (0 Bft) O 90 4,4 C 5,1 C 0,0 km/h (0 Bft)
09.11.2013 09:25 5,0 C 96 % 1017,4 hPa 0,0 l/m 0,0 km/h (0 Bft) O 90 4,4 C 5,1 C 0,0 km/h (0 Bft)
09.11.2013 09:30 4,9 C 96 % 1017,6 hPa 0,0 l/m 0,0 km/h (0 Bft) O 90 4,3 C 5,1 C 0,0 km/h (0 Bft)
09.11.2013 09:35 4,9 C 96 % 1017,6 hPa 0,0 l/m 0,0 km/h (0 Bft) O 90 4,3 C 5,1 C 0,0 km/h (0 Bft)
09.11.2013 09:40 5,0 C 96 % 1017,6 hPa 0,0 l/m 0,0 km/h (0 Bft) O 90 4,4 C 5,1 C 0,0 km/h (0 Bft)
09.11.2013 09:45 5,0 C 95 % 1017,6 hPa 0,0 l/m 0,0 km/h (0 Bft) O 90 4,3 C 5,1 C 0,0 km/h (0 Bft)
09.11.2013 09:50 5,1 C 95 % 1017,4 hPa 0,0 l/m 0,0 km/h (0 Bft) O 90 4,4 C 5,1 C 0,0 km/h (0 Bft)
09.11.2013 09:55 5,1 C 95 % 1017,4 hPa 0,0 l/m 0,0 km/h (0 Bft) O 90 4,4 C 5,1 C 0,0 km/h (0 Bft)
09.11.2013 10:00 5,0 C 95 % 1017,4 hPa 0,0 l/m 0,0 km/h (0 Bft) O 90 4,3 C 5,1 C 0,0 km/h (0 Bft)
09.11.2013 10:05 5,1 C 95 % 1017,4 hPa 0,0 l/m 0,0 km/h (0 Bft) O 90 4,4 C 5,1 C 0,0 km/h (0 Bft)
09.11.2013 10:10 5,1 C 95 % 1017,6 hPa 0,0 l/m 0,0 km/h (0 Bft) O 90 4,4 C 5,1 C 0,0 km/h (0 Bft)
09.11.2013 10:15 5,1 C 95 % 1017,6 hPa 0,0 l/m 0,0 km/h (0 Bft) O 90 4,4 C 5,1 C 0,0 km/h (0 Bft)
09.11.2013 10:20 5,0 C 94 % 1017,6 hPa 0,0 l/m 0,0 km/h (0 Bft) O 90 4,1 C 5,1 C 0,0 km/h (0 Bft)
09.11.2013 10:25 5,0 C 94 % 1017,6 hPa 0,0 l/m 0,0 km/h (0 Bft) O 90 4,1 C 5,1 C 0,0 km/h (0 Bft)
09.11.2013 10:30 5,0 C 94 % 1017,7 hPa 0,0 l/m 0,0 km/h (0 Bft) O 90 4,1 C 5,1 C 0,0 km/h (0 Bft)
09.11.2013 10:35 5,0 C 94 % 1017,7 hPa 0,0 l/m 0,0 km/h (0 Bft) O 90 4,1 C 5,1 C 0,0 km/h (0 Bft)
09.11.2013 10:40 5,0 C 94 % 1017,7 hPa 0,0 l/m 0,0 km/h (0 Bft) O 90 4,1 C 5,1 C 0,0 km/h (0 Bft)
09.11.2013 10:45 5,2 C 94 % 1017,7 hPa 0,0 l/m 0,0 km/h (0 Bft) O 90 4,3 C 5,1 C 0,0 km/h (0 Bft)
09.11.2013 10:50 5,5 C 94 % 1017,8 hPa 0,0 l/m 0,0 km/h (0 Bft) O 90 4,6 C 5,1 C 0,0 km/h (0 Bft)
09.11.2013 10:55 5,5 C 94 % 1017,8 hPa 0,0 l/m 0,0 km/h (0 Bft) O 90 4,6 C 5,1 C 0,0 km/h (0 Bft)
09.11.2013 11:00 5,4 C 93 % 1017,8 hPa 0,0 l/m 0,0 km/h (0 Bft) O 90 4,4 C 5,1 C 0,0 km/h (0 Bft)
09.11.2013 11:05 5,3 C 93 % 1017,8 hPa 0,0 l/m 0,0 km/h (0 Bft) O 90 4,3 C 5,1 C 0,0 km/h (0 Bft)
09.11.2013 11:10 5,1 C 93 % 1018,1 hPa 0,0 l/m 0,0 km/h (0 Bft) O 90 4,1 C 5,1 C 0,0 km/h (0 Bft)
09.11.2013 11:15 5,1 C 93 % 1018,1 hPa 0,0 l/m 0,0 km/h (0 Bft) O 90 4,1 C 5,1 C 0,0 km/h (0 Bft)
09.11.2013 11:20 5,5 C 93 % 1018,1 hPa 0,0 l/m 0,0 km/h (0 Bft) O 90 4,5 C 5,1 C 0,0 km/h (0 Bft)
09.11.2013 11:25 5,6 C 93 % 1018,1 hPa 0,0 l/m 0,0 km/h (0 Bft) O 90 4,6 C 5,1 C 0,0 km/h (0 Bft)
09.11.2013 11:30 5,6 C 93 % 1017,7 hPa 0,0 l/m 0,0 km/h (0 Bft) O 90 4,6 C 5,1 C 0,0 km/h (0 Bft)
09.11.2013 11:35 5,6 C 93 % 1017,7 hPa 0,0 l/m 0,0 km/h (0 Bft) O 90 4,6 C 5,1 C 0,0 km/h (0 Bft)
09.11.2013 11:40 5,7 C 93 % 1017,7 hPa 0,0 l/m 0,0 km/h (0 Bft) O 90 4,7 C 5,1 C 0,0 km/h (0 Bft)
09.11.2013 11:45 5,8 C 93 % 1017,7 hPa 0,0 l/m 0,0 km/h (0 Bft) O 90 4,8 C 5,1 C 0,0 km/h (0 Bft)
09.11.2013 11:50 6,0 C 92 % 1017,6 hPa 0,0 l/m 0,0 km/h (0 Bft) O 90 4,8 C 5,1 C 0,0 km/h (0 Bft)
09.11.2013 11:55 6,1 C 91 % 1017,6 hPa 0,0 l/m 0,0 km/h (0 Bft) O 90 4,7 C 5,1 C 0,0 km/h (0 Bft)
09.11.2013 11:58 6,2 C 91 % 1017,6 hPa 0,0 l/m 0,0 km/h (0 Bft) O 90 4,8 C 5,1 C 0,0 km/h (0 Bft)
09.11.2013 12:00 6,2 C 91 % 1017,6 hPa 0,0 l/m 0,0 km/h (0 Bft) O 90 4,8 C 5,1 C 0,0 km/h (0 Bft)
09.11.2013 12:05 6,1 C 90 % 1017,6 hPa 0,0 l/m 0,0 km/h (0 Bft) O 90 4,6 C 5,1 C 0,0 km/h (0 Bft)
09.11.2013 12:10 6,3 C 90 % 1017,6 hPa 0,0 l/m 0,0 km/h (0 Bft) O 90 4,8 C 5,1 C 0,0 km/h (0 Bft)
09.11.2013 12:15 6,3 C 90 % 1017,6 hPa 0,0 l/m 0,0 km/h (0 Bft) O 90 4,8 C 5,1 C 0,0 km/h (0 Bft)
09.11.2013 12:20 6,4 C 90 % 1017,6 hPa 0,0 l/m 0,0 km/h (0 Bft) O 90 4,9 C 5,1 C 0,0 km/h (0 Bft)
09.11.2013 12:25 6,3 C 90 % 1017,6 hPa 0,0 l/m 0,0 km/h (0 Bft) O 90 4,8 C 5,1 C 0,0 km/h (0 Bft)
09.11.2013 12:30 6,3 C 90 % 1017,5 hPa 0,0 l/m 0,0 km/h (0 Bft) O 90 4,8 C 5,1 C 0,0 km/h (0 Bft)
09.11.2013 12:35 6,2 C 89 % 1017,5 hPa 0,0 l/m 0,0 km/h (0 Bft) O 90 4,5 C 5,1 C 0,0 km/h (0 Bft)
09.11.2013 12:40 6,0 C 89 % 1017,5 hPa 0,0 l/m 0,0 km/h (0 Bft) O 90 4,3 C 5,1 C 0,0 km/h (0 Bft)
09.11.2013 12:45 5,9 C 89 % 1017,5 hPa 0,0 l/m 0,0 km/h (0 Bft) O 90 4,2 C 5,1 C 0,0 km/h (0 Bft)
09.11.2013 12:50 6,0 C 89 % 1017,2 hPa 0,0 l/m 0,0 km/h (0 Bft) O 90 4,3 C 5,1 C 0,0 km/h (0 Bft)
09.11.2013 12:55 6,0 C 89 % 1017,2 hPa 0,0 l/m 0,0 km/h (0 Bft) O 90 4,3 C 5,1 C 0,0 km/h (0 Bft)
09.11.2013 13:00 6,1 C 90 % 1017,2 hPa 0,0 l/m 0,0 km/h (0 Bft) O 90 4,6 C 5,1 C 0,0 km/h (0 Bft)
09.11.2013 13:05 6,0 C 89 % 1017,2 hPa 0,0 l/m 0,0 km/h (0 Bft) O 90 4,3 C 5,1 C 0,0 km/h (0 Bft)
09.11.2013 13:10 6,0 C 89 % 1017,1 hPa 0,0 l/m 0,0 km/h (0 Bft) O 90 4,3 C 5,1 C 0,0 km/h (0 Bft)
09.11.2013 13:15 6,2 C 89 % 1017,1 hPa 0,0 l/m 0,0 km/h (0 Bft) O 90 4,5 C 5,1 C 0,0 km/h (0 Bft)
09.11.2013 13:20 6,3 C 89 % 1017,1 hPa 0,0 l/m 0,0 km/h (0 Bft) O 90 4,6 C 5,1 C 0,0 km/h (0 Bft)
09.11.2013 13:25 6,2 C 89 % 1017,1 hPa 0,0 l/m 0,0 km/h (0 Bft) O 90 4,5 C 5,1 C 0,0 km/h (0 Bft)
09.11.2013 13:30 6,3 C 89 % 1016,9 hPa 0,0 l/m 0,0 km/h (0 Bft) O 90 4,6 C 5,1 C 0,0 km/h (0 Bft)
09.11.2013 13:35 6,3 C 88 % 1016,9 hPa 0,0 l/m 0,0 km/h (0 Bft) O 90 4,5 C 5,1 C 0,0 km/h (0 Bft)
09.11.2013 13:40 6,4 C 88 % 1016,9 hPa 0,0 l/m 0,0 km/h (0 Bft) O 90 4,6 C 5,1 C 0,0 km/h (0 Bft)
09.11.2013 13:45 6,3 C 88 % 1016,9 hPa 0,0 l/m 0,0 km/h (0 Bft) O 90 4,5 C 5,1 C 0,0 km/h (0 Bft)
09.11.2013 13:50 6,1 C 88 % 1016,9 hPa 0,0 l/m 0,0 km/h (0 Bft) O 90 4,3 C 5,1 C 0,0 km/h (0 Bft)
09.11.2013 13:55 6,1 C 88 % 1016,9 hPa 0,0 l/m 0,0 km/h (0 Bft) O 90 4,3 C 5,1 C 0,0 km/h (0 Bft)
09.11.2013 14:00 5,9 C 88 % 1016,9 hPa 0,0 l/m 0,0 km/h (0 Bft) O 90 4,1 C 5,1 C 0,0 km/h (0 Bft)
09.11.2013 14:05 5,9 C 88 % 1016,9 hPa 0,0 l/m 0,0 km/h (0 Bft) O 90 4,1 C 5,1 C 0,0 km/h (0 Bft)
09.11.2013 14:10 6,0 C 88 % 1016,8 hPa 0,0 l/m 0,0 km/h (0 Bft) O 90 4,2 C 5,1 C 0,0 km/h (0 Bft)
09.11.2013 14:15 5,9 C 89 % 1016,8 hPa 0,0 l/m 0,0 km/h (0 Bft) O 90 4,2 C 5,1 C 0,0 km/h (0 Bft)
09.11.2013 14:20 5,8 C 89 % 1016,8 hPa 0,0 l/m 0,0 km/h (0 Bft) O 90 4,1 C 5,1 C 0,0 km/h (0 Bft)
09.11.2013 14:25 5,9 C 89 % 1016,8 hPa 0,0 l/m 0,0 km/h (0 Bft) O 90 4,2 C 5,1 C 0,0 km/h (0 Bft)
09.11.2013 14:30 6,2 C 89 % 1016,6 hPa 0,0 l/m 0,0 km/h (0 Bft) O 90 4,5 C 5,1 C 0,0 km/h (0 Bft)
09.11.2013 14:35 6,3 C 89 % 1016,6 hPa 0,0 l/m 0,0 km/h (0 Bft) O 90 4,6 C 5,1 C 0,0 km/h (0 Bft)
09.11.2013 14:40 6,1 C 89 % 1016,6 hPa 0,0 l/m 0,0 km/h (0 Bft) O 90 4,4 C 5,1 C 0,0 km/h (0 Bft)
09.11.2013 14:45 6,2 C 89 % 1016,6 hPa 0,0 l/m 0,0 km/h (0 Bft) O 90 4,5 C 5,1 C 0,0 km/h (0 Bft)
09.11.2013 14:50 6,3 C 89 % 1016,6 hPa 0,0 l/m 0,0 km/h (0 Bft) O 90 4,6 C 5,1 C 0,0 km/h (0 Bft)
09.11.2013 14:55 6,3 C 89 % 1016,6 hPa 0,0 l/m 0,0 km/h (0 Bft) O 90 4,6 C 5,1 C 0,0 km/h (0 Bft)
09.11.2013 15:00 6,3 C 89 % 1016,6 hPa 0,0 l/m 0,0 km/h (0 Bft) O 90 4,6 C 5,1 C 0,0 km/h (0 Bft)
09.11.2013 15:05 6,4 C 89 % 1016,6 hPa 0,0 l/m 0,0 km/h (0 Bft) O 90 4,7 C 5,1 C 0,0 km/h (0 Bft)
09.11.2013 15:10 6,4 C 89 % 1016,3 hPa 0,0 l/m 0,0 km/h (0 Bft) O 90 4,7 C 5,1 C 0,0 km/h (0 Bft)
09.11.2013 15:15 6,3 C 89 % 1016,3 hPa 0,0 l/m 0,0 km/h (0 Bft) O 90 4,6 C 5,1 C 0,0 km/h (0 Bft)
09.11.2013 15:20 6,1 C 89 % 1016,3 hPa 0,0 l/m 0,0 km/h (0 Bft) O 90 4,4 C 5,1 C 0,0 km/h (0 Bft)
09.11.2013 15:25 6,0 C 89 % 1016,3 hPa 0,0 l/m 0,0 km/h (0 Bft) O 90 4,3 C 5,1 C 0,0 km/h (0 Bft)
09.11.2013 15:30 5,9 C 90 % 1016,3 hPa 0,0 l/m 0,0 km/h (0 Bft) O 90 4,4 C 5,1 C 0,0 km/h (0 Bft)
09.11.2013 15:35 5,9 C 90 % 1016,3 hPa 0,0 l/m 0,0 km/h (0 Bft) O 90 4,4 C 5,1 C 0,0 km/h (0 Bft)
09.11.2013 15:40 5,8 C 91 % 1016,3 hPa 0,0 l/m 0,0 km/h (0 Bft) O 90 4,4 C 5,1 C 0,0 km/h (0 Bft)
09.11.2013 15:45 5,8 C 91 % 1016,3 hPa 0,0 l/m 0,0 km/h (0 Bft) O 90 4,4 C 5,1 C 0,0 km/h (0 Bft)
09.11.2013 15:50 5,8 C 91 % 1016,1 hPa 0,0 l/m 0,0 km/h (0 Bft) O 90 4,4 C 5,1 C 0,0 km/h (0 Bft)
09.11.2013 15:55 5,7 C 91 % 1016,1 hPa 0,0 l/m 0,0 km/h (0 Bft) O 90 4,3 C 5,1 C 0,0 km/h (0 Bft)
09.11.2013 16:00 5,6 C 92 % 1016,1 hPa 0,0 l/m 0,0 km/h (0 Bft) O 90 4,4 C 5,1 C 0,0 km/h (0 Bft)
09.11.2013 16:05 5,5 C 92 % 1016,1 hPa 0,0 l/m 0,0 km/h (0 Bft) O 90 4,3 C 5,1 C 0,0 km/h (0 Bft)
09.11.2013 16:10 5,4 C 92 % 1016,2 hPa 0,0 l/m 0,0 km/h (0 Bft) O 90 4,2 C 5,1 C 0,0 km/h (0 Bft)
09.11.2013 16:15 5,4 C 92 % 1016,2 hPa 0,0 l/m 0,8 km/h (0 Bft) O 90 4,2 C 5,7 C 0,0 km/h (0 Bft)
09.11.2013 16:20 5,3 C 92 % 1016,2 hPa 0,0 l/m 0,3 km/h (0 Bft) O-SO 112 4,1 C 5,6 C 0,0 km/h (0 Bft)
09.11.2013 16:25 5,3 C 93 % 1016,2 hPa 0,0 l/m 0,2 km/h (0 Bft) O 90 4,3 C 5,6 C 0,0 km/h (0 Bft)
09.11.2013 16:30 5,1 C 93 % 1015,9 hPa 0,0 l/m 0,2 km/h (0 Bft) NO 45 4,1 C 5,4 C 0,0 km/h (0 Bft)
09.11.2013 16:35 5,1 C 93 % 1015,9 hPa 0,0 l/m 0,2 km/h (0 Bft) NO 45 4,1 C 5,3 C 0,0 km/h (0 Bft)
09.11.2013 16:40 5,0 C 93 % 1015,9 hPa 0,0 l/m 0,0 km/h (0 Bft) O-NO 67 4,0 C 5,2 C 0,0 km/h (0 Bft)
09.11.2013 16:45 4,9 C 93 % 1015,9 hPa 0,0 l/m 0,2 km/h (0 Bft) NO 45 3,9 C 5,0 C 1,8 km/h (1 Bft)
09.11.2013 16:50 4,8 C 93 % 1015,7 hPa 0,0 l/m 0,6 km/h (0 Bft) O 90 3,8 C 5,0 C 0,0 km/h (0 Bft)
09.11.2013 16:55 4,8 C 93 % 1015,7 hPa 0,0 l/m 0,6 km/h (0 Bft) NO 45 3,8 C 4,8 C 0,0 km/h (0 Bft)
09.11.2013 16:58 4,7 C 93 % 1015,7 hPa 0,0 l/m 0,2 km/h (0 Bft) O-NO 67 3,7 C 4,7 C 0,0 km/h (0 Bft)
09.11.2013 17:00 4,7 C 93 % 1015,7 hPa 0,0 l/m 0,2 km/h (0 Bft) O-NO 67 3,7 C 4,7 C 0,0 km/h (0 Bft)
09.11.2013 17:05 4,6 C 93 % 1015,7 hPa 0,0 l/m 0,3 km/h (0 Bft) NO 45 3,6 C 4,7 C 2,4 km/h (1 Bft)
09.11.2013 17:10 4,6 C 94 % 1015,5 hPa 0,0 l/m 1,9 km/h (1 Bft) NO 45 3,7 C 4,6 C 2,7 km/h (1 Bft)
09.11.2013 17:15 4,5 C 94 % 1015,5 hPa 0,0 l/m 2,3 km/h (1 Bft) NO 45 3,6 C 4,7 C 2,7 km/h (1 Bft)
09.11.2013 17:20 4,4 C 94 % 1015,5 hPa 0,0 l/m 1,8 km/h (1 Bft) O 90 3,5 C 4,6 C 1,8 km/h (1 Bft)
09.11.2013 17:25 4,5 C 94 % 1015,5 hPa 0,0 l/m 2,3 km/h (1 Bft) N-NO 22 3,6 C 4,5 C 3,1 km/h (1 Bft)
09.11.2013 17:30 4,4 C 94 % 1015,2 hPa 0,0 l/m 2,7 km/h (1 Bft) NO 45 3,5 C 4,5 C 2,7 km/h (1 Bft)
09.11.2013 17:35 4,4 C 94 % 1015,2 hPa 0,0 l/m 2,7 km/h (1 Bft) O-NO 67 3,5 C 4,5 C 2,6 km/h (1 Bft)
09.11.2013 17:40 4,3 C 94 % 1015,2 hPa 0,0 l/m 1,6 km/h (1 Bft) S-SW 202 3,4 C 4,4 C 0,0 km/h (0 Bft)
09.11.2013 17:45 4,2 C 94 % 1015,2 hPa 0,0 l/m 0,8 km/h (0 Bft) NO 45 3,3 C 4,2 C 0,0 km/h (0 Bft)
09.11.2013 17:50 4,0 C 94 % 1015,2 hPa 0,0 l/m 0,0 km/h (0 Bft) NO 45 3,1 C 4,1 C 0,0 km/h (0 Bft)
09.11.2013 17:55 3,9 C 94 % 1015,2 hPa 0,0 l/m 0,0 km/h (0 Bft) O-NO 67 3,0 C 3,9 C 0,0 km/h (0 Bft)
09.11.2013 18:00 3,9 C 94 % 1015,2 hPa 0,0 l/m 0,0 km/h (0 Bft) NO 45 3,0 C 3,8 C 0,0 km/h (0 Bft)
09.11.2013 18:05 3,8 C 94 % 1015,2 hPa 0,0 l/m 0,3 km/h (0 Bft) O 90 2,9 C 3,8 C 0,0 km/h (0 Bft)
09.11.2013 18:10 3,8 C 94 % 1014,9 hPa 0,0 l/m 0,3 km/h (0 Bft) NO 45 2,9 C 3,7 C 0,0 km/h (0 Bft)
09.11.2013 18:15 3,7 C 94 % 1014,9 hPa 0,0 l/m 0,0 km/h (0 Bft) N-NO 22 2,8 C 3,7 C 0,0 km/h (0 Bft)
09.11.2013 18:20 3,5 C 94 % 1014,9 hPa 0,0 l/m 0,0 km/h (0 Bft) SO 135 2,6 C 3,5 C 0,0 km/h (0 Bft)
09.11.2013 18:25 3,5 C 94 % 1014,9 hPa 0,0 l/m 0,0 km/h (0 Bft) O-SO 112 2,6 C 3,4 C 0,0 km/h (0 Bft)
09.11.2013 18:30 3,5 C 95 % 1014,8 hPa 0,0 l/m 0,3 km/h (0 Bft) SO 135 2,8 C 3,3 C 1,8 km/h (1 Bft)
09.11.2013 18:35 3,4 C 95 % 1014,8 hPa 0,0 l/m 0,3 km/h (0 Bft) O 90 2,7 C 3,4 C 0,0 km/h (0 Bft)
09.11.2013 18:40 3,3 C 95 % 1014,8 hPa 0,0 l/m 0,3 km/h (0 Bft) O-NO 67 2,6 C 3,1 C 0,0 km/h (0 Bft)
09.11.2013 18:45 3,3 C 95 % 1014,8 hPa 0,0 l/m 0,0 km/h (0 Bft) O-NO 67 2,6 C 3,1 C 0,0 km/h (0 Bft)
09.11.2013 18:50 3,4 C 95 % 1014,8 hPa 0,0 l/m 0,5 km/h (0 Bft) NO 45 2,7 C 3,1 C 2,9 km/h (1 Bft)
09.11.2013 18:55 3,1 C 95 % 1014,8 hPa 0,0 l/m 0,6 km/h (0 Bft) S-SO 157 2,4 C 3,1 C 2,4 km/h (1 Bft)
09.11.2013 19:00 2,9 C 96 % 1014,8 hPa 0,0 l/m 0,5 km/h (0 Bft) O 90 2,3 C 2,8 C 0,0 km/h (0 Bft)
09.11.2013 19:05 2,9 C 96 % 1014,8 hPa 0,0 l/m 0,5 km/h (0 Bft) O 90 2,3 C 2,6 C 2,9 km/h (1 Bft)
09.11.2013 19:10 2,9 C 96 % 1014,7 hPa 0,0 l/m 0,8 km/h (0 Bft) NO 45 2,3 C 2,6 C 0,0 km/h (0 Bft)
09.11.2013 19:15 2,7 C 96 % 1014,7 hPa 0,0 l/m 1,0 km/h (0 Bft) O-SO 112 2,1 C 2,5 C 0,0 km/h (0 Bft)
09.11.2013 19:20 2,8 C 96 % 1014,7 hPa 0,0 l/m 1,6 km/h (1 Bft) O 90 2,2 C 2,6 C 3,1 km/h (1 Bft)
09.11.2013 19:25 2,8 C 96 % 1014,7 hPa 0,0 l/m 1,8 km/h (1 Bft) O-NO 67 2,2 C 2,7 C 0,0 km/h (0 Bft)
09.11.2013 19:30 2,8 C 96 % 1014,4 hPa 0,0 l/m 1,4 km/h (1 Bft) N-NO 22 2,2 C 2,6 C 2,6 km/h (1 Bft)
09.11.2013 19:35 2,8 C 96 % 1014,4 hPa 0,0 l/m 1,1 km/h (1 Bft) NO 45 2,2 C 2,6 C 1,8 km/h (1 Bft)
09.11.2013 19:40 2,7 C 96 % 1014,4 hPa 0,0 l/m 1,3 km/h (1 Bft) O 90 2,1 C 2,6 C 3,2 km/h (1 Bft)
09.11.2013 19:45 2,7 C 96 % 1014,4 hPa 0,0 l/m 1,1 km/h (1 Bft) W 270 2,1 C 2,6 C 0,0 km/h (0 Bft)
09.11.2013 19:50 2,7 C 96 % 1014,4 hPa 0,0 l/m 0,8 km/h (0 Bft) NO 45 2,1 C 2,5 C 0,0 km/h (0 Bft)
09.11.2013 19:55 2,6 C 96 % 1014,4 hPa 0,0 l/m 0,2 km/h (0 Bft) O 90 2,0 C 2,5 C 0,0 km/h (0 Bft)
09.11.2013 20:00 2,8 C 96 % 1014,4 hPa 0,0 l/m 0,6 km/h (0 Bft) N 360 2,2 C 2,5 C 3,2 km/h (1 Bft)
09.11.2013 20:05 2,7 C 96 % 1014,4 hPa 0,0 l/m 0,6 km/h (0 Bft) W-SW 247 2,1 C 2,6 C 0,0 km/h (0 Bft)
09.11.2013 20:10 2,5 C 96 % 1014,3 hPa 0,0 l/m 0,5 km/h (0 Bft) O-SO 112 1,9 C 2,5 C 0,0 km/h (0 Bft)
09.11.2013 20:15 2,4 C 96 % 1014,3 hPa 0,0 l/m 0,3 km/h (0 Bft) NO 45 1,8 C 2,4 C 0,0 km/h (0 Bft)
09.11.2013 20:20 2,4 C 96 % 1014,3 hPa 0,0 l/m 0,2 km/h (0 Bft) O-SO 112 1,8 C 2,3 C 0,0 km/h (0 Bft)
09.11.2013 20:25 2,3 C 96 % 1014,3 hPa 0,0 l/m 0,0 km/h (0 Bft) SO 135 1,7 C 2,3 C 0,0 km/h (0 Bft)
09.11.2013 20:30 2,3 C 96 % 1014,1 hPa 0,0 l/m 0,0 km/h (0 Bft) NO 45 1,7 C 2,3 C 0,0 km/h (0 Bft)
09.11.2013 20:35 2,4 C 96 % 1014,1 hPa 0,0 l/m 0,0 km/h (0 Bft) N-NO 22 1,8 C 2,3 C 2,1 km/h (1 Bft)
09.11.2013 20:40 2,4 C 96 % 1014,1 hPa 0,0 l/m 0,2 km/h (0 Bft) W 270 1,8 C 2,4 C 0,0 km/h (0 Bft)
09.11.2013 20:45 2,5 C 96 % 1014,1 hPa 0,0 l/m 0,2 km/h (0 Bft) W-NW 292 1,9 C 2,3 C 0,0 km/h (0 Bft)
09.11.2013 20:50 2,3 C 96 % 1013,8 hPa 0,0 l/m 0,0 km/h (0 Bft) S-SW 202 1,7 C 2,3 C 0,0 km/h (0 Bft)
09.11.2013 20:55 2,3 C 96 % 1013,8 hPa 0,0 l/m 0,0 km/h (0 Bft) W-SW 247 1,7 C 2,2 C 0,0 km/h (0 Bft)
09.11.2013 21:00 2,4 C 96 % 1013,8 hPa 0,0 l/m 0,2 km/h (0 Bft) NO 45 1,8 C 2,0 C 0,0 km/h (0 Bft)
09.11.2013 21:05 2,3 C 96 % 1013,8 hPa 0,0 l/m 0,2 km/h (0 Bft) O-SO 112 1,7 C 2,0 C 0,0 km/h (0 Bft)
09.11.2013 21:10 2,3 C 96 % 1013,9 hPa 0,0 l/m 0,3 km/h (0 Bft) S 180 1,7 C 2,0 C 2,6 km/h (1 Bft)
09.11.2013 21:15 2,1 C 96 % 1013,9 hPa 0,0 l/m 0,8 km/h (0 Bft) SO 135 1,5 C 2,1 C 0,0 km/h (0 Bft)
09.11.2013 21:20 2,1 C 96 % 1013,9 hPa 0,0 l/m 0,8 km/h (0 Bft) NW 315 1,5 C 2,0 C 2,1 km/h (1 Bft)
09.11.2013 21:25 2,0 C 96 % 1013,9 hPa 0,0 l/m 0,6 km/h (0 Bft) W-SW 247 1,4 C 2,0 C 1,6 km/h (1 Bft)
09.11.2013 21:30 1,9 C 96 % 1013,4 hPa 0,0 l/m 0,8 km/h (0 Bft) SO 135 1,3 C 1,9 C 4,3 km/h (1 Bft)
09.11.2013 21:35 1,8 C 96 % 1013,4 hPa 0,0 l/m 0,5 km/h (0 Bft) W 270 1,2 C 1,9 C 0,0 km/h (0 Bft)
09.11.2013 21:40 1,6 C 96 % 1013,4 hPa 0,0 l/m 0,2 km/h (0 Bft) NO 45 1,0 C 1,8 C 0,0 km/h (0 Bft)
09.11.2013 21:45 1,6 C 96 % 1013,4 hPa 0,0 l/m 0,0 km/h (0 Bft) N 360 1,0 C 1,6 C 0,0 km/h (0 Bft)
09.11.2013 21:50 1,8 C 96 % 1013,3 hPa 0,0 l/m 0,0 km/h (0 Bft) N 360 1,2 C 1,4 C 0,0 km/h (0 Bft)
09.11.2013 21:55 1,9 C 96 % 1013,3 hPa 0,0 l/m 0,0 km/h (0 Bft) N 360 1,3 C 1,3 C 0,0 km/h (0 Bft)
09.11.2013 21:58 1,4 C 96 % 1013,3 hPa 0,0 l/m 0,0 km/h (0 Bft) NW 315 0,8 C 1,3 C 0,0 km/h (0 Bft)
09.11.2013 22:00 1,4 C 96 % 1013,3 hPa 0,0 l/m 0,0 km/h (0 Bft) NW 315 0,8 C 1,3 C 0,0 km/h (0 Bft)
09.11.2013 22:05 1,6 C 96 % 1013,3 hPa 0,0 l/m 0,2 km/h (0 Bft) N-NO 22 1,0 C 1,2 C 0,0 km/h (0 Bft)
09.11.2013 22:10 1,3 C 96 % 1012,9 hPa 0,0 l/m 0,2 km/h (0 Bft) W 270 0,7 C 1,1 C 1,9 km/h (1 Bft)
09.11.2013 22:15 1,4 C 96 % 1012,9 hPa 0,0 l/m 0,3 km/h (0 Bft) W 270 0,8 C 1,2 C 4,8 km/h (1 Bft)
09.11.2013 22:20 1,5 C 96 % 1012,9 hPa 0,0 l/m 0,8 km/h (0 Bft) W 270 0,9 C 1,4 C 1,6 km/h (1 Bft)
09.11.2013 22:25 1,5 C 96 % 1012,9 hPa 0,0 l/m 1,1 km/h (1 Bft) N 360 0,9 C 1,4 C 0,0 km/h (0 Bft)
09.11.2013 22:30 1,4 C 96 % 1012,9 hPa 0,0 l/m 0,5 km/h (0 Bft) O-SO 112 0,8 C 1,3 C 1,8 km/h (1 Bft)
09.11.2013 22:35 1,4 C 96 % 1012,9 hPa 0,0 l/m 1,0 km/h (0 Bft) S-SW 202 0,8 C 1,4 C 2,4 km/h (1 Bft)
09.11.2013 22:40 1,2 C 96 % 1012,9 hPa 0,0 l/m 1,1 km/h (1 Bft) O-NO 67 0,6 C 1,4 C 3,4 km/h (1 Bft)
09.11.2013 22:45 1,2 C 96 % 1012,9 hPa 0,0 l/m 0,6 km/h (0 Bft) O-SO 112 0,6 C 1,4 C 0,0 km/h (0 Bft)
09.11.2013 22:50 1,1 C 96 % 1013,1 hPa 0,0 l/m 0,6 km/h (0 Bft) NO 45 0,5 C 1,2 C 3,2 km/h (1 Bft)
09.11.2013 22:55 1,1 C 96 % 1013,1 hPa 0,0 l/m 0,3 km/h (0 Bft) W 270 0,5 C 1,1 C 0,0 km/h (0 Bft)
09.11.2013 23:00 1,3 C 96 % 1013,1 hPa 0,0 l/m 0,3 km/h (0 Bft) N 360 0,7 C 0,9 C 3,1 km/h (1 Bft)
09.11.2013 23:05 1,0 C 96 % 1013,1 hPa 0,0 l/m 0,3 km/h (0 Bft) N-NO 22 0,4 C 0,9 C 0,0 km/h (0 Bft)
09.11.2013 23:10 0,7 C 97 % 1012,4 hPa 0,0 l/m 0,3 km/h (0 Bft) N 360 0,3 C 0,8 C 2,1 km/h (1 Bft)
09.11.2013 23:15 0,8 C 97 % 1012,4 hPa 0,0 l/m 0,2 km/h (0 Bft) N 360 0,4 C 0,8 C 0,0 km/h (0 Bft)
09.11.2013 23:20 1,1 C 96 % 1012,4 hPa 0,0 l/m 0,2 km/h (0 Bft) O 90 0,5 C 0,7 C 0,0 km/h (0 Bft)
09.11.2013 23:25 1,3 C 96 % 1012,4 hPa 0,0 l/m 0,5 km/h (0 Bft) W 270 0,7 C 0,8 C 0,0 km/h (0 Bft)
09.11.2013 23:30 0,9 C 97 % 1012,4 hPa 0,0 l/m 0,5 km/h (0 Bft) W-SW 247 0,5 C 0,7 C 0,0 km/h (0 Bft)
09.11.2013 23:35 0,5 C 96 % 1012,4 hPa 0,0 l/m 0,5 km/h (0 Bft) S-SO 157 -0,1 C 0,3 C 3,1 km/h (1 Bft)
09.11.2013 23:40 0,4 C 96 % 1012,4 hPa 0,0 l/m 0,5 km/h (0 Bft) O 90 -0,2 C 0,0 C 0,0 km/h (0 Bft)
09.11.2013 23:45 0,4 C 96 % 1012,4 hPa 0,0 l/m 0,3 km/h (0 Bft) O-NO 67 -0,2 C -0,3 C 0,0 km/h (0 Bft)
09.11.2013 23:50 0,5 C 96 % 1012,2 hPa 0,0 l/m 0,2 km/h (0 Bft) N-NW 337 -0,1 C -0,4 C 0,0 km/h (0 Bft)
09.11.2013 23:55 0,4 C 96 % 1012,2 hPa 0,0 l/m 0,2 km/h (0 Bft) N-NW 337 -0,2 C -0,4 C 0,0 km/h (0 Bft)
_ Min-Zeit 23:55 00:35 23:55 - 22:00 - - 23:55 01:15 23:55
Minimum _ 0,4 C 77 % 1012,2 hPa - 0,0 km/h (0 Bft) - - -0,2 C -2,7 C 0,0 km/h (0 Bft)
_ Max-Zeit 00:35 23:30 11:25 08:10 01:10 - - 01:00 00:30 01:00
Maximum _ 11,0 C 97 % 1018,1 hPa 0,7 l/m 21,6 km/h
S-SO (4 Bft)
- - 7,8 C 10,8 C 41,7 km/h
SW (6 Bft)
Durchschnitt _ 5,0 C 93 % 1015,5 hPa #9,6 l/m 2,2 km/h (1 Bft) S - 3,9 C 4,1 C 2,9 km/h (1 Bft)